Time;durP1;ratioP1;P1;durP2;ratioP2;P2;SDS_P1;SDS_P2;PMS_P1;PMS_P2;Temp;Humidity;BMP_temperature;BMP_pressure;BME280_temperature;BME280_humidity;BME280_pressure;Samples;Min_cycle;Max_cycle;Signal;HPM_P1;HPM_P2
2023/06/22 00:01:17;;;;;;;10.70;9.63;;;;;;;21.24;78.18;95693.97;5006141;28;20622;-78
2023/06/22 00:03:42;;;;;;;10.52;9.20;;;;;;;21.33;77.70;95693.53;4997573;28;20199;-78
2023/06/22 00:06:08;;;;;;;11.88;9.82;;;;;;;21.25;77.68;95685.81;4997098;28;20190;-77
2023/06/22 00:08:33;;;;;;;10.95;9.75;;;;;;;21.36;77.51;95684.38;4996785;28;20234;-79
2023/06/22 00:10:58;;;;;;;10.93;9.82;;;;;;;21.38;76.84;95692.91;4983659;28;20192;-78
2023/06/22 00:13:24;;;;;;;11.02;9.82;;;;;;;21.39;76.75;95699.81;4991191;28;20216;-78
2023/06/22 00:15:49;;;;;;;10.73;9.63;;;;;;;21.40;76.79;95699.59;4998330;28;20199;-79
2023/06/22 00:18:15;;;;;;;9.77;8.77;;;;;;;21.42;76.64;95696.75;4995187;28;20572;-79
2023/06/22 00:20:41;;;;;;;13.35;10.27;;;;;;;21.38;76.92;95692.91;4989380;28;20693;-78
2023/06/22 00:23:09;;;;;;;10.45;9.43;;;;;;;21.30;77.39;95696.63;4982931;28;20200;-78
2023/06/22 00:25:35;;;;;;;11.40;9.70;;;;;;;21.24;77.80;95696.59;4998161;28;20283;-79
2023/06/22 00:28:02;;;;;;;10.43;9.32;;;;;;;21.34;77.92;95691.72;4997259;28;20207;-78
2023/06/22 00:30:27;;;;;;;11.23;9.20;;;;;;;21.33;77.66;95695.38;5012387;28;20187;-79
2023/06/22 00:32:53;;;;;;;10.40;9.30;;;;;;;21.20;77.93;95714.69;4978363;28;20621;-79
2023/06/22 00:35:18;;;;;;;13.82;9.77;;;;;;;21.17;78.16;95723.84;4997608;28;20617;-79
2023/06/22 00:37:43;;;;;;;11.35;10.13;;;;;;;21.06;79.13;95758.81;4997648;28;20553;-79
2023/06/22 00:40:14;;;;;;;11.18;10.05;;;;;;;21.08;79.58;95808.78;4991432;28;20183;-79
2023/06/22 00:42:39;;;;;;;11.65;9.40;;;;;;;20.98;80.36;95825.03;4993211;28;20187;-79
2023/06/22 00:45:06;;;;;;;10.75;9.52;;;;;;;21.01;80.64;95818.53;4996542;28;20200;-79
2023/06/22 00:47:31;;;;;;;10.65;9.13;;;;;;;20.84;81.56;95795.19;4986941;28;20723;-79
2023/06/22 00:49:57;;;;;;;9.88;8.70;;;;;;;21.16;79.76;95782.97;4979307;28;20176;-77
2023/06/22 00:52:27;;;;;;;10.45;9.30;;;;;;;21.20;79.58;95755.13;4986062;28;20263;-79
2023/06/22 00:54:52;;;;;;;11.23;9.45;;;;;;;21.18;79.71;95746.59;4975472;28;20294;-78
2023/06/22 00:57:18;;;;;;;11.38;9.75;;;;;;;21.13;79.93;95727.13;4958279;28;20828;-78
2023/06/22 00:59:48;;;;;;;10.57;9.25;;;;;;;20.94;80.49;95720.91;4987730;28;20256;-79
2023/06/22 01:02:13;;;;;;;10.93;9.45;;;;;;;20.95;80.96;95716.44;4979194;28;20538;-79
2023/06/22 01:04:39;;;;;;;10.70;8.63;;;;;;;20.92;80.86;95715.00;4982769;28;20218;-79
2023/06/22 01:07:18;;;;;;;9.77;8.88;;;;;;;20.88;81.13;95700.59;4987717;28;20195;-79
2023/06/22 01:09:59;;;;;;;10.25;9.23;;;;;;;20.83;81.27;95705.69;4981483;28;20188;-79
2023/06/22 01:12:25;;;;;;;10.10;9.10;;;;;;;20.75;81.29;95706.72;4988689;28;20188;-79
2023/06/22 01:14:56;;;;;;;10.90;9.75;;;;;;;20.74;81.34;95712.19;4971422;28;20230;-79
2023/06/22 01:17:23;;;;;;;13.38;10.60;;;;;;;20.77;81.16;95707.34;4996142;28;20199;-79
2023/06/22 01:19:55;;;;;;;12.60;10.00;;;;;;;20.89;80.95;95710.94;4983145;28;20239;-80
2023/06/22 01:22:24;;;;;;;10.50;9.40;;;;;;;20.92;80.70;95704.44;4991000;28;20188;-78
2023/06/22 01:25:00;;;;;;;11.07;9.60;;;;;;;20.94;80.50;95702.41;4993336;28;20204;-78
2023/06/22 01:27:45;;;;;;;11.73;9.57;;;;;;;20.90;80.17;95698.56;4992839;28;20188;-78
2023/06/22 01:30:11;;;;;;;12.27;11.00;;;;;;;20.95;80.33;95703.22;4986844;28;20184;-79
2023/06/22 01:32:38;;;;;;;10.77;9.57;;;;;;;20.96;80.23;95710.94;4995281;28;20278;-79
2023/06/22 01:35:05;;;;;;;13.10;10.23;;;;;;;20.93;80.11;95708.69;4993985;28;20203;-79
2023/06/22 01:37:33;;;;;;;12.18;9.85;;;;;;;20.86;80.16;95715.84;4994718;28;20200;-79
2023/06/22 01:39:59;;;;;;;10.40;9.23;;;;;;;20.86;80.27;95703.44;4976885;28;20195;-79
2023/06/22 01:42:25;;;;;;;10.55;9.43;;;;;;;20.82;80.58;95709.34;4994971;28;20223;-78
2023/06/22 01:44:52;;;;;;;12.60;10.07;;;;;;;20.76;80.50;95707.50;4993384;28;20302;-79
2023/06/22 01:47:17;;;;;;;10.63;9.55;;;;;;;20.72;80.86;95714.25;4993109;28;20206;-79
2023/06/22 01:49:43;;;;;;;10.65;9.57;;;;;;;20.71;80.92;95712.63;4994038;28;20184;-79
2023/06/22 01:52:08;;;;;;;12.48;9.63;;;;;;;20.65;81.49;95714.25;4994682;28;20194;-79
2023/06/22 01:54:34;;;;;;;15.77;10.70;;;;;;;20.55;81.88;95719.94;4975432;28;20210;-79
2023/06/22 01:57:00;;;;;;;11.75;10.25;;;;;;;20.55;81.80;95733.13;4972771;28;20195;-79
2023/06/22 01:59:39;;;;;;;14.80;9.88;;;;;;;20.53;81.99;95731.72;4991948;28;20192;-79
2023/06/22 02:02:07;;;;;;;11.13;9.98;;;;;;;20.49;82.20;95735.78;5005543;28;20234;-78
2023/06/22 02:04:41;;;;;;;11.70;9.93;;;;;;;20.40;83.06;95732.50;4991435;28;20752;-77
2023/06/22 02:07:17;;;;;;;10.25;8.90;;;;;;;20.44;82.76;95720.56;4975602;28;20200;-78
2023/06/22 02:09:44;;;;;;;12.35;10.20;;;;;;;20.36;82.84;95713.66;4969171;28;20180;-77
2023/06/22 02:12:11;;;;;;;10.90;9.80;;;;;;;20.31;82.96;95713.44;4994303;28;20215;-79
2023/06/22 02:14:37;;;;;;;12.13;9.57;;;;;;;20.21;84.24;95720.94;4994455;28;20203;-79
2023/06/22 02:17:07;;;;;;;9.68;8.77;;;;;;;20.30;83.35;95713.66;4974496;28;20206;-79
2023/06/22 02:19:35;;;;;;;10.68;9.77;;;;;;;20.26;83.44;95696.63;4994982;28;20210;-79
2023/06/22 02:22:01;;;;;;;11.93;10.35;;;;;;;20.19;83.61;95706.34;4986206;28;20708;-79
2023/06/22 02:24:26;;;;;;;11.18;9.98;;;;;;;20.14;83.52;95708.78;4992474;28;20196;-80
2023/06/22 02:26:51;;;;;;;12.93;11.32;;;;;;;20.10;84.41;95705.75;4997701;28;20214;-79
2023/06/22 02:29:17;;;;;;;12.18;10.98;;;;;;;20.03;85.98;95697.84;4968237;28;20193;-78
2023/06/22 02:31:43;;;;;;;12.93;11.45;;;;;;;19.97;87.38;95689.94;4955436;28;20682;-80
2023/06/22 02:34:08;;;;;;;12.27;10.43;;;;;;;20.03;86.05;95689.13;4972887;28;20674;-78
2023/06/22 02:36:33;;;;;;;13.90;11.18;;;;;;;20.00;85.87;95690.34;4977046;28;20649;-80
2023/06/22 02:39:01;;;;;;;16.88;11.38;;;;;;;19.90;86.09;95695.22;4978778;28;20280;-78
2023/06/22 02:41:27;;;;;;;11.13;10.02;;;;;;;19.90;86.12;95695.22;4969770;28;20189;-78
2023/06/22 02:43:52;;;;;;;13.68;10.65;;;;;;;19.78;87.15;95705.50;4964004;28;20208;-79
2023/06/22 02:46:17;;;;;;;11.27;10.23;;;;;;;19.76;86.69;95701.47;4976942;28;20277;-79
2023/06/22 02:48:43;;;;;;;10.95;9.88;;;;;;;19.72;86.94;95706.34;4985461;28;20183;-80
2023/06/22 02:51:08;;;;;;;12.63;11.32;;;;;;;19.61;87.45;95695.56;4993386;28;20184;-80
2023/06/22 02:53:34;;;;;;;12.38;10.90;;;;;;;19.67;86.98;95692.13;4989996;28;20613;-78
2023/06/22 02:56:06;;;;;;;14.57;13.07;;;;;;;19.71;87.67;95688.09;4997326;28;20188;-79
2023/06/22 02:58:38;;;;;;;15.63;13.00;;;;;;;19.70;88.27;95695.19;4999949;28;20214;-79
2023/06/22 03:01:06;;;;;;;14.10;12.68;;;;;;;19.82;88.31;95691.97;4987442;28;20662;-79
2023/06/22 03:03:32;;;;;;;18.00;12.85;;;;;;;19.84;88.20;95684.66;4996998;28;20226;-79
2023/06/22 03:05:57;;;;;;;13.57;12.13;;;;;;;19.97;88.56;95677.56;4976941;28;20187;-79
2023/06/22 03:08:22;;;;;;;12.40;11.20;;;;;;;19.98;88.14;95684.47;4971538;28;20184;-79
2023/06/22 03:10:48;;;;;;;14.27;12.60;;;;;;;19.90;87.78;95686.50;4985876;28;20287;-79
2023/06/22 03:13:13;;;;;;;15.93;13.27;;;;;;;19.86;88.23;95680.00;5000399;28;20241;-79
2023/06/22 03:15:38;;;;;;;17.10;12.75;;;;;;;19.86;88.01;95680.00;5025762;28;20219;-80
2023/06/22 03:18:04;;;;;;;13.75;12.35;;;;;;;19.84;88.48;95679.38;5000725;28;20212;-79
2023/06/22 03:20:33;;;;;;;14.23;12.85;;;;;;;19.85;89.08;95673.91;5021152;28;20188;-80
2023/06/22 03:22:58;;;;;;;13.57;12.18;;;;;;;19.86;89.23;95662.34;5008497;28;20239;-79
2023/06/22 03:25:24;;;;;;;14.52;11.95;;;;;;;19.76;89.01;95660.13;5000062;28;20251;-79
2023/06/22 03:27:49;;;;;;;15.70;12.30;;;;;;;19.73;88.97;95670.25;5027105;28;20196;-79
2023/06/22 03:30:14;;;;;;;15.40;13.38;;;;;;;19.82;88.92;95671.69;5012749;28;20195;-79
2023/06/22 03:32:40;;;;;;;13.23;11.93;;;;;;;19.89;88.52;95664.59;5017541;28;20190;-78
2023/06/22 03:35:06;;;;;;;12.05;10.85;;;;;;;19.98;88.42;95666.03;4994888;28;20219;-78
2023/06/22 03:37:31;;;;;;;12.77;11.60;;;;;;;19.93;87.89;95667.63;5010795;28;20198;-79
2023/06/22 03:39:57;;;;;;;13.70;12.27;;;;;;;19.89;88.45;95667.22;5003266;28;20200;-80
2023/06/22 03:42:22;;;;;;;14.88;13.27;;;;;;;19.86;88.76;95664.97;4987590;28;20200;-80
2023/06/22 03:44:47;;;;;;;15.35;13.85;;;;;;;19.96;87.01;95656.66;5001868;28;20279;-79
2023/06/22 03:47:13;;;;;;;20.00;13.63;;;;;;;20.02;86.71;95661.94;5016951;28;20198;-79
2023/06/22 03:49:38;;;;;;;15.63;12.90;;;;;;;20.09;87.03;95665.41;4992163;28;20183;-80
2023/06/22 03:52:05;;;;;;;13.25;11.90;;;;;;;20.19;86.63;95656.25;4990672;28;20195;-79
2023/06/22 03:54:30;;;;;;;13.57;12.23;;;;;;;20.11;86.48;95661.75;4981032;28;20215;-80
2023/06/22 03:56:59;;;;;;;13.38;12.07;;;;;;;20.18;86.11;95663.38;4994086;28;20211;-80
2023/06/22 03:59:24;;;;;;;13.38;11.80;;;;;;;20.26;85.31;95659.72;4982651;28;20182;-80
2023/06/22 04:01:50;;;;;;;13.65;11.38;;;;;;;20.59;83.59;95659.69;4990452;28;20216;-79
2023/06/22 04:04:17;;;;;;;12.98;11.55;;;;;;;20.86;81.89;95663.84;4986568;28;20217;-80
2023/06/22 04:06:42;;;;;;;12.63;11.43;;;;;;;21.36;79.36;95658.78;4986875;28;20203;-79
2023/06/22 04:09:07;;;;;;;14.13;10.48;;;;;;;21.93;76.36;95651.69;4975919;28;20215;-79
2023/06/22 04:11:33;;;;;;;13.20;11.38;;;;;;;21.85;76.11;95653.78;4985970;28;20201;-81
2023/06/22 04:13:58;;;;;;;11.32;10.15;;;;;;;22.48;73.21;95645.72;4981256;28;20220;-79
2023/06/22 04:16:23;;;;;;;11.38;10.27;;;;;;;23.28;69.21;95651.75;5009977;28;20191;-79
2023/06/22 04:18:49;;;;;;;14.70;10.70;;;;;;;23.61;67.52;95653.16;4964631;28;20189;-80
2023/06/22 04:21:14;;;;;;;12.02;9.77;;;;;;;23.64;67.04;95650.84;4980733;28;20193;-81
2023/06/22 04:23:39;;;;;;;10.98;9.48;;;;;;;24.25;64.72;95647.03;4993863;28;20665;-80
2023/06/22 04:26:05;;;;;;;12.23;10.45;;;;;;;24.45;62.10;95640.59;4997969;28;20194;-81
2023/06/22 04:28:34;;;;;;;11.30;10.15;;;;;;;24.17;63.55;95633.28;4996184;28;20184;-80
2023/06/22 04:31:03;;;;;;;11.43;9.35;;;;;;;25.38;59.63;95634.28;4991314;28;20188;-80
2023/06/22 04:33:29;;;;;;;10.57;9.55;;;;;;;25.39;58.38;95630.56;4951255;28;20235;-79
2023/06/22 04:35:56;;;;;;;10.52;9.50;;;;;;;25.96;56.96;95633.16;4992575;28;20211;-79
2023/06/22 04:38:22;;;;;;;10.68;9.57;;;;;;;26.24;55.71;95634.94;4975875;28;20200;-83
2023/06/22 04:40:48;;;;;;;10.30;9.10;;;;;;;26.60;54.55;95635.47;4985386;28;20580;-82
2023/06/22 04:43:13;;;;;;;11.77;9.55;;;;;;;26.49;54.10;95637.16;4984144;28;20207;-83
2023/06/22 04:45:38;;;;;;;10.82;8.68;;;;;;;27.05;51.79;95636.06;4978287;28;20191;-84
2023/06/22 04:48:05;;;;;;;11.52;9.18;;;;;;;27.52;51.20;95629.38;4971838;28;20277;-85
2023/06/22 04:50:30;;;;;;;11.80;9.20;;;;;;;28.01;49.16;95629.31;4984281;28;20279;-84
2023/06/22 04:52:55;;;;;;;9.55;8.65;;;;;;;28.31;48.09;95629.56;4978866;28;20704;-84
2023/06/22 04:55:21;;;;;;;10.95;8.20;;;;;;;28.36;47.59;95631.44;4992326;28;20191;-83
2023/06/22 04:57:50;;;;;;;10.90;9.18;;;;;;;28.04;48.13;95623.47;4994770;28;20191;-84
2023/06/22 05:00:17;;;;;;;12.55;9.40;;;;;;;28.91;45.60;95625.63;4966373;28;20191;-84
2023/06/22 05:02:44;;;;;;;8.98;8.07;;;;;;;29.08;45.79;95638.00;4967591;28;20200;-85
2023/06/22 05:05:13;;;;;;;11.85;8.55;;;;;;;29.61;44.80;95629.63;4989110;28;20195;-84
2023/06/22 05:07:42;;;;;;;10.20;8.52;;;;;;;29.01;45.34;95630.22;4994116;28;20223;-84
2023/06/22 05:10:08;;;;;;;8.85;7.95;;;;;;;28.88;45.56;95633.31;4994264;28;20198;-85
2023/06/22 05:12:33;;;;;;;9.98;8.75;;;;;;;28.71;46.62;95623.66;4981376;28;20259;-84
2023/06/22 05:14:58;;;;;;;9.13;8.18;;;;;;;29.68;44.29;95620.50;4983510;28;20220;-85
2023/06/22 05:17:24;;;;;;;11.73;8.85;;;;;;;29.75;43.33;95613.03;4982797;28;20642;-79
2023/06/22 05:19:50;;;;;;;9.98;7.95;;;;;;;29.66;44.14;95614.63;4989373;28;20179;-84
2023/06/22 05:22:15;;;;;;;9.30;8.25;;;;;;;29.07;44.80;95613.16;4981158;28;20212;-82
2023/06/22 05:24:41;;;;;;;11.00;9.30;;;;;;;28.04;47.80;95610.09;4978702;28;20283;-87
2023/06/22 05:27:06;;;;;;;10.93;9.20;;;;;;;28.87;45.45;95608.47;4970998;28;20193;-86
2023/06/22 05:29:32;;;;;;;9.20;8.20;;;;;;;29.27;44.15;95604.38;4960643;28;20187;-86
2023/06/22 05:32:00;;;;;;;12.27;9.30;;;;;;;29.01;44.66;95612.31;4984200;28;20184;-85
2023/06/22 05:34:33;;;;;;;9.00;8.10;;;;;;;28.35;46.93;95603.94;4998136;23;20319;-85
2023/06/22 05:36:59;;;;;;;9.02;8.13;;;;;;;29.20;44.35;95607.28;4994126;28;20192;-86
2023/06/22 05:39:25;;;;;;;8.60;7.70;;;;;;;29.07;45.49;95605.13;5001074;28;20192;-85
2023/06/22 05:41:51;;;;;;;10.18;8.48;;;;;;;28.75;46.29;95606.03;4989520;28;20197;-84
2023/06/22 05:44:18;;;;;;;9.65;8.07;;;;;;;30.37;42.87;95604.72;5009964;28;20204;-84
2023/06/22 05:46:46;;;;;;;9.02;8.13;;;;;;;30.25;43.04;95606.88;5007491;28;20200;-84
2023/06/22 05:49:14;;;;;;;9.95;7.70;;;;;;;30.65;41.56;95606.00;4985935;28;20195;-84
2023/06/22 05:51:40;;;;;;;8.52;7.63;;;;;;;31.26;39.75;95605.78;4989243;28;20187;-84
2023/06/22 05:54:06;;;;;;;8.93;8.02;;;;;;;31.41;40.01;95623.69;4990382;28;20220;-86
2023/06/22 05:56:31;;;;;;;9.43;7.43;;;;;;;32.47;37.70;95613.25;4995939;28;20180;-84
2023/06/22 05:58:57;;;;;;;8.85;7.10;;;;;;;32.85;37.38;95610.69;4988608;28;20307;-85
2023/06/22 06:01:22;;;;;;;8.25;7.22;;;;;;;33.08;36.65;95607.19;4983099;28;20251;-85
2023/06/22 06:03:49;;;;;;;8.38;7.40;;;;;;;32.39;37.06;95603.91;4989188;28;20226;-85
2023/06/22 06:06:17;;;;;;;9.80;6.97;;;;;;;33.02;36.68;95604.84;4993029;28;20188;-85
2023/06/22 06:08:42;;;;;;;7.90;7.10;;;;;;;32.07;37.78;95611.69;4991937;28;20187;-85
2023/06/22 06:11:08;;;;;;;8.88;7.95;;;;;;;31.51;39.54;95604.84;4985724;28;20550;-82
2023/06/22 06:13:33;;;;;;;9.82;7.65;;;;;;;32.01;38.32;95608.28;5007809;28;20230;-85
2023/06/22 06:15:59;;;;;;;8.75;6.75;;;;;;;32.16;37.31;95601.13;4973187;28;20264;-84
2023/06/22 06:18:24;;;;;;;8.75;7.28;;;;;;;32.21;37.70;95601.09;4997269;28;20184;-87
2023/06/22 06:20:50;;;;;;;8.55;7.38;;;;;;;32.69;37.11;95602.81;4977264;28;20191;-85
2023/06/22 06:23:15;;;;;;;10.73;7.88;;;;;;;32.22;37.65;95614.25;5003818;28;20214;-83
2023/06/22 06:25:40;;;;;;;9.93;7.03;;;;;;;32.80;36.93;95603.47;5009087;28;20188;-85
2023/06/22 06:28:06;;;;;;;7.90;6.47;;;;;;;32.35;37.54;95604.78;4990822;28;20180;-84
2023/06/22 06:30:31;;;;;;;10.38;6.80;;;;;;;32.31;36.65;95607.22;4990890;28;20185;-84
2023/06/22 06:32:56;;;;;;;11.18;7.35;;;;;;;32.43;36.33;95606.03;4982733;28;20185;-84
2023/06/22 06:35:22;;;;;;;7.03;6.32;;;;;;;33.35;35.27;95606.56;4980903;28;20561;-82
2023/06/22 06:37:49;;;;;;;8.85;7.15;;;;;;;32.18;36.99;95602.47;4993745;28;20196;-83
2023/06/22 06:40:15;;;;;;;8.18;6.53;;;;;;;33.10;35.89;95612.28;4992226;28;20175;-85
2023/06/22 06:42:44;;;;;;;7.88;5.97;;;;;;;33.34;35.22;95618.44;4986712;28;20204;-85
2023/06/22 06:45:10;;;;;;;8.93;6.10;;;;;;;33.93;34.35;95603.63;4987731;28;20564;-84
2023/06/22 06:47:35;;;;;;;10.10;6.80;;;;;;;33.46;34.25;95601.88;4991447;28;20180;-84
2023/06/22 06:50:01;;;;;;;6.40;5.80;;;;;;;32.96;35.14;95601.44;4994754;28;20183;-84
2023/06/22 06:52:26;;;;;;;10.65;6.47;;;;;;;32.97;35.34;95595.78;4987343;28;20186;-84
2023/06/22 06:54:52;;;;;;;9.50;6.45;;;;;;;32.18;36.69;95589.03;4984644;28;20720;-84
2023/06/22 06:57:18;;;;;;;10.07;6.47;;;;;;;32.72;35.89;95595.25;4986560;28;20195;-84
2023/06/22 06:59:43;;;;;;;8.70;6.43;;;;;;;32.66;36.21;95583.72;4992377;28;20200;-86
2023/06/22 07:02:08;;;;;;;8.57;6.65;;;;;;;32.13;36.25;95583.72;4988019;28;20223;-86
2023/06/22 07:04:34;;;;;;;7.82;5.85;;;;;;;32.13;36.11;95567.59;4991354;28;20295;-84
2023/06/22 07:07:01;;;;;;;8.10;6.70;;;;;;;31.81;36.62;95570.84;4992670;28;20183;-83
2023/06/22 07:09:26;;;;;;;8.45;6.00;;;;;;;31.81;37.58;95568.97;4985031;28;20184;-83
2023/06/22 07:11:52;;;;;;;9.60;6.22;;;;;;;31.57;37.53;95566.16;4981563;28;20196;-83
2023/06/22 07:14:17;;;;;;;8.00;6.38;;;;;;;32.02;37.36;95561.53;4991249;28;20216;-86
2023/06/22 07:16:42;;;;;;;9.45;7.10;;;;;;;32.31;36.54;95569.59;4991755;28;20288;-84
2023/06/22 07:19:08;;;;;;;9.70;6.65;;;;;;;32.30;36.61;95559.09;4991399;28;20308;-83
2023/06/22 07:21:33;;;;;;;7.72;5.75;;;;;;;32.29;36.79;95561.00;5007079;28;20232;-84
2023/06/22 07:23:58;;;;;;;7.72;6.60;;;;;;;31.54;38.38;95553.31;5011975;28;20212;-82
2023/06/22 07:26:24;;;;;;;7.53;5.75;;;;;;;31.19;39.56;95548.16;4997263;28;20179;-85
2023/06/22 07:28:50;;;;;;;9.20;6.65;;;;;;;31.33;39.10;95553.72;4989924;28;20228;-84
2023/06/22 07:31:16;;;;;;;10.40;7.18;;;;;;;31.91;37.91;95553.84;4996804;28;20177;-82
2023/06/22 07:33:41;;;;;;;9.25;6.57;;;;;;;32.88;36.73;95559.03;4995767;28;20230;-84
2023/06/22 07:36:07;;;;;;;9.40;6.20;;;;;;;33.07;37.00;95559.06;5011442;28;20203;-82
2023/06/22 07:38:34;;;;;;;7.10;6.10;;;;;;;32.88;36.86;95551.78;4993169;28;20590;-83
2023/06/22 07:40:59;;;;;;;10.15;6.82;;;;;;;33.27;36.10;95552.59;4988766;28;20184;-83
2023/06/22 07:43:25;;;;;;;8.40;6.68;;;;;;;32.77;36.72;95555.63;4992021;28;20205;-82
2023/06/22 07:45:54;;;;;;;14.57;6.40;;;;;;;32.41;37.79;95558.72;4990448;28;20667;-82
2023/06/22 07:48:22;;;;;;;9.98;6.55;;;;;;;32.11;37.45;95559.03;4969111;28;20192;-82
2023/06/22 07:50:48;;;;;;;9.50;6.38;;;;;;;32.68;36.38;95558.16;4996073;28;20195;-83
2023/06/22 07:53:13;;;;;;;9.57;6.25;;;;;;;32.42;37.39;95559.53;4994370;28;20294;-82
2023/06/22 07:55:38;;;;;;;8.23;6.00;;;;;;;32.54;37.19;95556.47;4997964;28;20179;-83
2023/06/22 07:58:04;;;;;;;9.55;5.78;;;;;;;32.76;36.48;95555.94;4994735;28;20236;-83
2023/06/22 08:00:29;;;;;;;10.32;6.18;;;;;;;32.52;37.24;95566.72;4995585;28;20266;-82
2023/06/22 08:02:55;;;;;;;8.68;6.10;;;;;;;32.03;38.10;95562.31;4996760;28;20184;-84
2023/06/22 08:05:20;;;;;;;11.63;6.65;;;;;;;31.46;39.13;95553.91;4991916;28;20264;-84
2023/06/22 08:07:45;;;;;;;9.95;6.20;;;;;;;30.36;41.75;95556.78;4997490;28;20187;-83
2023/06/22 08:10:12;;;;;;;13.07;6.13;;;;;;;30.57;40.87;95562.88;5000280;28;20245;-84
2023/06/22 08:12:38;;;;;;;11.00;5.43;;;;;;;30.48;40.84;95554.63;4994203;28;20235;-83
2023/06/22 08:15:04;;;;;;;8.90;6.18;;;;;;;29.38;42.52;95557.84;4994682;28;20207;-84
2023/06/22 08:17:30;;;;;;;12.27;6.72;;;;;;;29.06;43.51;95558.03;4994101;28;20872;-83
2023/06/22 08:19:56;;;;;;;10.77;5.93;;;;;;;28.64;45.01;95572.31;4996412;28;20187;-81
2023/06/22 08:22:22;;;;;;;10.73;6.20;;;;;;;28.44;45.33;95567.66;4991676;28;20565;-82
2023/06/22 08:24:47;;;;;;;13.43;6.03;;;;;;;28.45;46.33;95576.50;4978148;28;20347;-81
2023/06/22 08:27:13;;;;;;;8.70;5.80;;;;;;;28.20;47.27;95574.44;4994368;28;20660;-82
2023/06/22 08:29:39;;;;;;;10.50;6.15;;;;;;;27.68;47.64;95572.47;4994541;28;20191;-82
2023/06/22 08:32:05;;;;;;;12.93;6.25;;;;;;;27.78;47.60;95582.41;4996358;28;20206;-85
2023/06/22 08:34:30;;;;;;;11.32;6.20;;;;;;;26.85;51.81;95603.81;5000850;28;20216;-82
2023/06/22 08:36:56;;;;;;;11.68;6.35;;;;;;;26.91;51.78;95628.66;5004980;28;20531;-82
2023/06/22 08:39:21;;;;;;;13.00;6.38;;;;;;;26.24;54.07;95673.00;4989267;28;20180;-82
2023/06/22 08:41:47;;;;;;;9.80;6.13;;;;;;;25.99;54.47;95640.66;4988451;28;20218;-83
2023/06/22 08:44:13;;;;;;;12.23;6.68;;;;;;;25.76;54.54;95614.22;5006046;28;20243;-83
2023/06/22 08:46:40;;;;;;;10.20;6.50;;;;;;;26.25;53.62;95589.44;4991810;28;20185;-78
2023/06/22 08:49:06;;;;;;;11.85;6.20;;;;;;;26.67;53.52;95580.94;5027898;28;20173;-84
2023/06/22 08:51:31;;;;;;;12.35;6.50;;;;;;;27.12;53.98;95585.22;5014003;28;20177;-93
2023/06/22 08:53:57;;;;;;;10.32;6.43;;;;;;;27.24;52.37;95575.25;5026293;28;20211;-90
2023/06/22 08:56:22;;;;;;;10.65;6.22;;;;;;;27.42;51.83;95558.06;5016103;28;20239;-92
2023/06/22 08:58:47;;;;;;;8.00;6.07;;;;;;;27.34;51.84;95578.00;5009800;28;20180;-92
2023/06/22 09:01:15;;;;;;;10.55;6.28;;;;;;;27.81;50.27;95544.53;5010839;28;20181;-88
2023/06/22 09:03:40;;;;;;;11.98;6.22;;;;;;;28.33;49.99;95541.97;5014349;28;20224;-88
2023/06/22 09:06:05;;;;;;;12.77;6.60;;;;;;;28.61;48.04;95542.63;5006912;28;20168;-92
2023/06/22 09:08:31;;;;;;;10.57;6.85;;;;;;;28.38;48.64;95523.31;5006141;28;20179;-92
2023/06/22 09:10:56;;;;;;;10.18;6.32;;;;;;;28.24;48.97;95522.13;5011897;28;20172;-89
2023/06/22 09:13:22;;;;;;;10.63;6.05;;;;;;;28.26;49.38;95533.34;5007990;28;20263;-94
2023/06/22 09:15:47;;;;;;;10.55;6.60;;;;;;;28.12;49.62;95525.00;5013144;28;20192;-93
2023/06/22 09:18:13;;;;;;;8.68;6.15;;;;;;;28.28;49.32;95533.91;5011730;28;20181;-92
2023/06/22 09:20:39;;;;;;;11.52;6.68;;;;;;;28.55;49.10;95533.81;5009768;28;20193;-81
2023/06/22 09:23:04;;;;;;;8.68;6.28;;;;;;;28.68;48.37;95537.84;4989843;28;20255;-82
2023/06/22 09:25:29;;;;;;;10.68;6.32;;;;;;;29.16;48.02;95531.34;4994332;28;20547;-82
2023/06/22 09:27:55;;;;;;;10.95;6.10;;;;;;;29.02;48.94;95544.41;4989792;28;20554;-84
2023/06/22 09:30:20;;;;;;;8.60;5.93;;;;;;;29.63;46.89;95545.59;4988326;28;20289;-82
2023/06/22 09:32:45;;;;;;;12.43;6.32;;;;;;;29.96;45.43;95550.41;4988040;28;20236;-82
2023/06/22 09:35:13;;;;;;;12.40;6.63;;;;;;;29.76;45.73;95542.38;4994739;28;20239;-82
2023/06/22 09:37:38;;;;;;;12.88;7.05;;;;;;;30.03;45.71;95548.22;4985874;28;20693;-81
2023/06/22 09:40:08;;;;;;;17.55;6.53;;;;;;;29.87;45.57;95534.09;5006316;28;20199;-83
2023/06/22 09:42:34;;;;;;;11.68;6.05;;;;;;;30.68;44.64;95535.81;5006937;28;20173;-89
2023/06/22 09:45:01;;;;;;;12.00;6.65;;;;;;;30.70;44.29;95524.81;5017490;28;20207;-92
2023/06/22 09:47:26;;;;;;;11.50;6.28;;;;;;;30.93;42.36;95523.34;5016618;28;20203;-92
2023/06/22 09:49:52;;;;;;;8.40;6.35;;;;;;;31.16;42.14;95541.44;5016620;28;20195;-91
2023/06/22 09:52:17;;;;;;;10.15;6.43;;;;;;;30.90;41.48;95545.34;5004530;28;20195;-82
2023/06/22 09:54:42;;;;;;;11.20;6.20;;;;;;;31.17;42.52;95526.16;4987726;28;20215;-83
2023/06/22 09:57:08;;;;;;;12.55;6.47;;;;;;;31.79;40.75;95530.84;4983314;28;20626;-86
2023/06/22 09:59:33;;;;;;;13.95;6.07;;;;;;;30.97;41.84;95527.06;4974311;28;20621;-83
2023/06/22 10:01:59;;;;;;;10.80;6.45;;;;;;;31.37;41.03;95519.91;4993180;28;20187;-82
2023/06/22 10:04:25;;;;;;;10.68;6.00;;;;;;;31.40;40.98;95505.91;4991688;28;20204;-83
2023/06/22 10:06:50;;;;;;;11.30;6.65;;;;;;;30.80;42.32;95503.31;4989369;28;20266;-81
2023/06/22 10:09:16;;;;;;;14.27;6.72;;;;;;;31.41;40.23;95502.16;4986957;28;20267;-83
2023/06/22 10:11:41;;;;;;;8.73;6.35;;;;;;;31.43;41.49;95495.41;4988756;28;20212;-77
2023/06/22 10:14:06;;;;;;;12.18;6.68;;;;;;;31.28;42.42;95490.97;4989219;28;20250;-78
2023/06/22 10:16:32;;;;;;;14.25;6.53;;;;;;;31.65;41.27;95494.97;5004110;28;20657;-79
2023/06/22 10:18:58;;;;;;;11.23;6.18;;;;;;;31.57;40.72;95498.25;4986500;28;20705;-81
2023/06/22 10:21:23;;;;;;;11.48;6.63;;;;;;;31.77;41.58;95506.16;4992605;28;20279;-82
2023/06/22 10:23:48;;;;;;;11.75;6.40;;;;;;;31.32;41.44;95483.16;4992990;28;20637;-83
2023/06/22 10:26:14;;;;;;;12.18;6.50;;;;;;;31.80;41.10;95494.84;4989671;28;20194;-87
2023/06/22 10:28:39;;;;;;;9.85;6.38;;;;;;;31.63;42.09;95490.94;4991888;28;20305;-82
2023/06/22 10:31:04;;;;;;;10.13;6.45;;;;;;;31.17;41.66;95493.97;4988060;28;20670;-83
2023/06/22 10:33:30;;;;;;;10.18;6.53;;;;;;;31.31;42.70;95499.53;4988011;28;20386;-82
2023/06/22 10:35:55;;;;;;;11.48;7.10;;;;;;;31.50;42.61;95481.69;4982257;28;20215;-82
2023/06/22 10:38:20;;;;;;;11.75;6.78;;;;;;;31.63;41.63;95483.72;4980436;28;20187;-83
2023/06/22 10:40:46;;;;;;;11.20;6.80;;;;;;;31.66;41.43;95491.19;4989094;28;20641;-83
2023/06/22 10:43:11;;;;;;;11.80;6.70;;;;;;;31.42;42.47;95493.81;4992811;28;20207;-83
2023/06/22 10:45:36;;;;;;;10.68;7.15;;;;;;;31.28;42.95;95496.34;4988436;28;20263;-84
2023/06/22 10:48:02;;;;;;;11.18;6.50;;;;;;;31.25;42.02;95493.41;4990675;28;20565;-82
2023/06/22 10:50:27;;;;;;;10.80;6.80;;;;;;;31.05;42.78;95494.31;4996000;28;20202;-84
2023/06/22 10:52:54;;;;;;;11.73;6.75;;;;;;;31.26;42.51;95490.44;4991142;28;20194;-83
2023/06/22 10:55:19;;;;;;;10.30;6.47;;;;;;;31.31;42.48;95492.28;4961705;28;20203;-83
2023/06/22 10:57:46;;;;;;;9.23;6.70;;;;;;;31.23;42.38;95491.00;4993990;28;20724;-82
2023/06/22 11:00:13;;;;;;;12.68;6.75;;;;;;;31.57;42.41;95485.66;4993327;28;20184;-81
2023/06/22 11:02:38;;;;;;;12.45;6.43;;;;;;;31.88;43.68;95492.63;4989960;28;20653;-82
2023/06/22 11:05:05;;;;;;;14.65;6.93;;;;;;;32.02;41.65;95490.91;4986975;28;20195;-81
2023/06/22 11:07:31;;;;;;;14.32;6.40;;;;;;;32.37;41.01;95485.16;5013097;28;20254;-81
2023/06/22 11:09:56;;;;;;;14.20;6.57;;;;;;;32.80;39.61;95490.53;4990550;28;20641;-84
2023/06/22 11:12:21;;;;;;;12.35;6.97;;;;;;;33.15;38.86;95485.78;4997839;28;20219;-82
2023/06/22 11:14:46;;;;;;;12.10;6.97;;;;;;;32.67;39.15;95491.22;4996876;28;20299;-84
2023/06/22 11:17:12;;;;;;;12.40;6.85;;;;;;;32.79;39.92;95488.94;4996978;28;20234;-84
2023/06/22 11:19:38;;;;;;;13.75;7.13;;;;;;;32.85;38.96;95485.09;4990132;28;20262;-81
2023/06/22 11:22:04;;;;;;;8.45;6.22;;;;;;;33.09;37.96;95476.19;4991269;28;20197;-81